Time;durP1;ratioP1;P1;durP2;ratioP2;P2;SDS_P1;SDS_P2;PMS_P1;PMS_P2;Temp;Humidity;BMP_temperature;BMP_pressure;BME280_temperature;BME280_humidity;BME280_pressure;Samples;Min_cycle;Max_cycle;Signal;HPM_P1;HPM_P2
2023/06/23 00:01:20;;;;;;;15.95;12.57;;;17.80;99.90;;;;;;5031704;28;20041;-64
2023/06/23 00:03:46;;;;;;;17.20;14.05;;;17.80;99.90;;;;;;5031806;28;20412;-64
2023/06/23 00:06:13;;;;;;;15.13;13.43;;;17.80;99.90;;;;;;5031351;28;20045;-64
2023/06/23 00:08:39;;;;;;;18.08;15.50;;;17.80;99.90;;;;;;5030695;28;20124;-64
2023/06/23 00:11:09;;;;;;;20.35;17.65;;;17.80;99.90;;;;;;5031646;28;20123;-64
2023/06/23 00:13:36;;;;;;;19.52;17.13;;;17.80;99.90;;;;;;5030711;28;20068;-64
2023/06/23 00:16:04;;;;;;;20.38;18.23;;;17.80;99.90;;;;;;5030247;28;20045;-64
2023/06/23 00:18:36;;;;;;;22.50;18.52;;;17.70;99.90;;;;;;5015570;28;20422;-64
2023/06/23 00:21:04;;;;;;;20.50;18.05;;;17.80;99.90;;;;;;5035067;28;20037;-64
2023/06/23 00:23:30;;;;;;;19.55;17.45;;;17.80;99.90;;;;;;5034511;28;20124;-64
2023/06/23 00:25:57;;;;;;;19.27;17.33;;;17.70;99.90;;;;;;5034938;28;20099;-64
2023/06/23 00:28:23;;;;;;;21.38;18.92;;;17.70;99.90;;;;;;5045612;28;20072;-64
2023/06/23 00:30:49;;;;;;;20.95;17.55;;;17.70;99.90;;;;;;5033645;28;20485;-64
2023/06/23 00:33:16;;;;;;;19.80;17.80;;;17.70;99.90;;;;;;5033746;28;20041;-64
2023/06/23 00:35:41;;;;;;;20.67;17.35;;;17.70;99.90;;;;;;5033040;28;20128;-64
2023/06/23 00:38:07;;;;;;;21.20;17.95;;;17.70;99.90;;;;;;5033976;28;20129;-64
2023/06/23 00:40:34;;;;;;;19.33;16.52;;;17.70;99.90;;;;;;5032695;28;20053;-64
2023/06/23 00:43:00;;;;;;;21.85;17.23;;;17.70;99.90;;;;;;5033315;28;20049;-64
2023/06/23 00:45:26;;;;;;;21.40;16.45;;;17.60;99.90;;;;;;5033518;28;20051;-64
2023/06/23 00:47:52;;;;;;;21.77;15.90;;;17.60;99.90;;;;;;5040311;28;20120;-64
2023/06/23 00:50:22;;;;;;;19.40;16.75;;;17.60;99.90;;;;;;5054752;28;20037;-64
2023/06/23 00:52:52;;;;;;;20.15;14.02;;;17.60;99.90;;;;;;5054076;28;20041;-64
2023/06/23 00:55:20;;;;;;;16.20;14.50;;;17.60;99.90;;;;;;5052292;28;20481;-64
2023/06/23 00:57:46;;;;;;;16.38;14.35;;;17.60;99.90;;;;;;5053355;28;20045;-64
2023/06/23 01:00:15;;;;;;;18.30;14.82;;;17.60;99.90;;;;;;5053333;28;20049;-64
2023/06/23 01:02:40;;;;;;;18.77;14.57;;;17.60;99.90;;;;;;5052270;28;20029;-64
2023/06/23 01:05:06;;;;;;;16.02;14.32;;;17.60;99.90;;;;;;5053080;28;20110;-64
2023/06/23 01:07:57;;;;;;;15.23;12.63;;;17.60;99.90;;;;;;5037198;28;20044;-64
2023/06/23 01:10:35;;;;;;;16.27;13.45;;;17.50;99.90;;;;;;5052369;28;20052;-64
2023/06/23 01:13:18;;;;;;;17.27;14.25;;;17.50;99.90;;;;;;5045448;28;20470;-64
2023/06/23 01:16:06;;;;;;;15.40;13.43;;;17.50;99.90;;;;;;5047519;28;20041;-64
2023/06/23 01:19:08;;;;;;;17.05;14.55;;;17.40;99.90;;;;;;5047680;28;20038;-64
2023/06/23 01:21:50;;;;;;;17.50;14.73;;;17.40;99.90;;;;;;4980196;28;20128;-64
2023/06/23 01:24:29;;;;;;;17.92;14.77;;;17.40;99.90;;;;;;5031209;28;20140;-64
2023/06/23 01:27:29;;;;;;;18.60;15.38;;;17.30;99.90;;;;;;5032691;28;20114;-64
2023/06/23 01:29:55;;;;;;;18.08;15.35;;;17.30;99.90;;;;;;5030834;28;20053;-64
2023/06/23 01:32:29;;;;;;;17.48;15.63;;;17.20;99.90;;;;;;5033204;28;20049;-64
2023/06/23 01:35:06;;;;;;;18.02;15.85;;;17.20;99.90;;;;;;5032885;28;20506;-64
2023/06/23 01:37:36;;;;;;;17.60;15.18;;;17.20;99.90;;;;;;5033294;28;20049;-64
2023/06/23 01:40:10;;;;;;;18.27;15.57;;;17.20;99.90;;;;;;5032338;28;20118;-64
2023/06/23 01:42:38;;;;;;;;;;;17.20;99.90;;;;;;5033316;28;20037;-64
2023/06/23 01:45:06;;;;;;;19.15;14.45;;;17.10;99.90;;;;;;5032674;28;20023;-64
2023/06/23 01:47:35;;;;;;;16.83;13.95;;;17.10;99.90;;;;;;5032424;28;20053;-64
2023/06/23 01:50:04;;;;;;;17.20;12.77;;;17.10;99.90;;;;;;5033634;28;20445;-64
2023/06/23 01:52:34;;;;;;;16.20;13.50;;;17.10;99.90;;;;;;5036394;28;20135;-64
2023/06/23 01:55:02;;;;;;;17.63;13.80;;;17.00;99.90;;;;;;5035927;28;20095;-64
2023/06/23 01:57:30;;;;;;;14.60;11.57;;;17.00;99.90;;;;;;5052904;28;20128;-64
2023/06/23 01:59:57;;;;;;;15.60;12.50;;;17.00;99.90;;;;;;5033953;28;20172;-64
2023/06/23 02:02:25;;;;;;;13.82;11.13;;;17.00;99.90;;;;;;5035305;28;20037;-64
2023/06/23 02:04:52;;;;;;;14.07;10.32;;;17.00;99.90;;;;;;5053177;28;20048;-64
2023/06/23 02:07:19;;;;;;;17.25;12.18;;;17.00;99.90;;;;;;5051917;28;20041;-64
2023/06/23 02:09:46;;;;;;;14.32;10.50;;;17.00;99.90;;;;;;5051507;28;20045;-64
2023/06/23 02:12:14;;;;;;;13.95;10.38;;;16.90;99.90;;;;;;5038187;28;20042;-64
2023/06/23 02:14:42;;;;;;;14.65;12.27;;;16.90;99.90;;;;;;5051758;28;20119;-64
2023/06/23 02:17:09;;;;;;;14.93;11.63;;;16.90;99.90;;;;;;5052052;28;20053;-64
2023/06/23 02:19:39;;;;;;;16.75;11.90;;;16.90;99.90;;;;;;5052189;28;20051;-64
2023/06/23 02:22:11;;;;;;;18.23;11.43;;;16.90;99.90;;;;;;5051775;28;20040;-64
2023/06/23 02:24:39;;;;;;;16.58;13.15;;;16.90;99.90;;;;;;5065190;28;20049;-64
2023/06/23 02:27:06;;;;;;;16.10;13.05;;;16.80;99.90;;;;;;5064530;28;20045;-64
2023/06/23 02:29:35;;;;;;;16.02;10.98;;;16.80;99.90;;;;;;5046403;28;20060;-64
2023/06/23 02:32:02;;;;;;;13.30;11.23;;;16.80;99.90;;;;;;5052691;28;20029;-64
2023/06/23 02:34:29;;;;;;;16.35;13.32;;;16.80;99.90;;;;;;5034253;28;20098;-64
2023/06/23 02:36:58;;;;;;;15.90;13.90;;;16.70;99.90;;;;;;5052466;28;20045;-64
2023/06/23 02:39:28;;;;;;;18.60;14.52;;;16.80;99.90;;;;;;5052398;28;20402;-64
2023/06/23 02:41:57;;;;;;;16.70;12.93;;;16.70;99.90;;;;;;5049921;28;20041;-64
2023/06/23 02:44:31;;;;;;;15.88;12.38;;;16.60;99.90;;;;;;5071268;28;20414;-64
2023/06/23 02:46:58;;;;;;;16.73;13.15;;;16.60;99.90;;;;;;5054173;28;20051;-64
2023/06/23 02:49:28;;;;;;;17.63;15.38;;;16.60;99.90;;;;;;5071630;28;20048;-64
2023/06/23 02:51:58;;;;;;;20.25;16.67;;;16.60;99.90;;;;;;5054767;28;20485;-64
2023/06/23 02:54:25;;;;;;;19.85;16.60;;;16.50;99.90;;;;;;5052754;28;20048;-64
2023/06/23 02:56:54;;;;;;;22.65;18.88;;;16.50;99.90;;;;;;5054467;28;20381;-64
2023/06/23 02:59:22;;;;;;;22.98;20.45;;;16.50;99.90;;;;;;5054577;28;20437;-64
2023/06/23 03:01:52;;;;;;;23.65;20.13;;;16.50;99.90;;;;;;5053833;28;20169;-64
2023/06/23 03:04:19;;;;;;;27.67;22.05;;;16.40;99.90;;;;;;5054401;28;20487;-64
2023/06/23 03:06:45;;;;;;;27.23;24.38;;;16.40;99.90;;;;;;5036599;28;20044;-64
2023/06/23 03:09:11;;;;;;;26.00;22.13;;;16.40;99.90;;;;;;5051754;28;20094;-64
2023/06/23 03:11:42;;;;;;;29.05;24.08;;;16.40;99.90;;;;;;5034633;28;20059;-64
2023/06/23 03:14:08;;;;;;;27.10;21.88;;;16.40;99.90;;;;;;5051047;28;20122;-64
2023/06/23 03:16:49;;;;;;;26.75;23.85;;;16.40;99.90;;;;;;5071443;28;20178;-64
2023/06/23 03:19:37;;;;;;;27.80;22.48;;;16.40;99.90;;;;;;5054260;28;20064;-64
2023/06/23 03:22:15;;;;;;;20.88;18.23;;;16.40;99.90;;;;;;5071385;28;20119;-64
2023/06/23 03:24:45;;;;;;;20.38;18.20;;;16.30;99.90;;;;;;5052053;28;20041;-64
2023/06/23 03:27:13;;;;;;;23.52;19.92;;;16.30;99.90;;;;;;5052099;28;20041;-64
2023/06/23 03:29:55;;;;;;;22.13;19.33;;;16.30;99.90;;;;;;5029867;28;20057;-64
2023/06/23 03:32:34;;;;;;;24.83;19.70;;;16.30;99.90;;;;;;5050977;28;20095;-64
2023/06/23 03:35:06;;;;;;;22.35;17.30;;;16.20;99.90;;;;;;5017427;28;20088;-64
2023/06/23 03:37:37;;;;;;;20.92;16.20;;;16.10;99.90;;;;;;5033108;28;20049;-65
2023/06/23 03:40:09;;;;;;;24.20;19.63;;;16.10;99.90;;;;;;5017814;28;20084;-64
2023/06/23 03:42:43;;;;;;;18.92;16.25;;;16.10;99.90;;;;;;5032824;28;20515;-64
2023/06/23 03:45:10;;;;;;;;;;;16.10;99.90;;;;;;5034547;28;20052;-64
2023/06/23 03:47:38;;;;;;;18.02;13.80;;;16.00;99.90;;;;;;5034133;28;19917;-64
2023/06/23 03:50:10;;;;;;;18.00;14.75;;;16.00;99.90;;;;;;5051444;28;20047;-64
2023/06/23 03:52:38;;;;;;;19.48;15.80;;;16.00;99.90;;;;;;5031654;28;20091;-64
2023/06/23 03:55:06;;;;;;;19.52;16.67;;;16.00;99.90;;;;;;5051623;28;20181;-64
2023/06/23 03:57:34;;;;;;;17.67;14.35;;;16.00;99.90;;;;;;5017181;28;20041;-64
2023/06/23 04:00:03;;;;;;;20.08;17.02;;;16.00;99.90;;;;;;5034664;28;20404;-64
2023/06/23 04:02:30;;;;;;;19.00;14.95;;;15.90;99.90;;;;;;5018008;28;20045;-64
2023/06/23 04:04:59;;;;;;;21.05;16.00;;;15.90;99.90;;;;;;5034741;28;20037;-64
2023/06/23 04:07:26;;;;;;;16.67;14.80;;;15.90;99.90;;;;;;5035394;28;20045;-64
2023/06/23 04:09:53;;;;;;;15.48;12.75;;;15.90;99.90;;;;;;5035387;28;20041;-64
2023/06/23 04:12:21;;;;;;;18.10;14.52;;;15.80;99.90;;;;;;5049968;28;20096;-64
2023/06/23 04:14:52;;;;;;;16.92;13.70;;;15.90;99.90;;;;;;5052924;28;20375;-64
2023/06/23 04:17:21;;;;;;;17.55;14.32;;;15.90;99.90;;;;;;5020721;28;20116;-64
2023/06/23 04:19:50;;;;;;;16.77;14.43;;;15.90;99.90;;;;;;5034533;28;20056;-64
2023/06/23 04:22:18;;;;;;;17.42;13.75;;;15.90;99.90;;;;;;5034669;28;20045;-64
2023/06/23 04:24:45;;;;;;;18.23;13.60;;;15.90;99.90;;;;;;5035273;28;20048;-64
2023/06/23 04:27:14;;;;;;;17.77;14.15;;;15.90;99.90;;;;;;5016841;28;20077;-64
2023/06/23 04:29:47;;;;;;;18.85;14.73;;;15.90;99.90;;;;;;5049581;28;20064;-64
2023/06/23 04:32:15;;;;;;;21.33;14.38;;;15.90;99.90;;;;;;5020634;28;20367;-64
2023/06/23 04:34:42;;;;;;;17.05;13.80;;;15.90;99.90;;;;;;5069442;28;20036;-64
2023/06/23 04:37:28;;;;;;;18.02;13.75;;;15.90;99.90;;;;;;5057168;28;20063;-64
2023/06/23 04:40:10;;;;;;;15.63;13.07;;;15.90;99.90;;;;;;5056078;28;20140;-64
2023/06/23 04:42:45;;;;;;;17.50;13.48;;;15.90;99.90;;;;;;5074557;28;20032;-64
2023/06/23 04:45:16;;;;;;;18.13;12.27;;;15.90;99.90;;;;;;5037078;28;20068;-64
2023/06/23 04:47:45;;;;;;;20.05;13.60;;;15.90;99.90;;;;;;5052317;28;20052;-64
2023/06/23 04:50:14;;;;;;;17.67;13.25;;;15.90;99.90;;;;;;5054649;28;20044;-64
2023/06/23 04:52:49;;;;;;;17.33;13.85;;;16.00;99.90;;;;;;5046456;28;20044;-64
2023/06/23 04:55:18;;;;;;;22.00;15.10;;;16.00;99.90;;;;;;5035837;28;20045;-64
2023/06/23 04:57:46;;;;;;;17.30;14.00;;;16.00;99.90;;;;;;5036368;28;20060;-64
2023/06/23 05:00:16;;;;;;;21.30;14.80;;;16.00;99.90;;;;;;5070430;28;20037;-64
2023/06/23 05:02:45;;;;;;;17.55;14.75;;;16.10;99.90;;;;;;5068391;28;20048;-64
2023/06/23 05:05:16;;;;;;;19.77;15.80;;;16.10;99.90;;;;;;5035725;28;20049;-64
2023/06/23 05:07:43;;;;;;;18.80;14.40;;;16.20;99.90;;;;;;5053840;28;20041;-64
2023/06/23 05:10:11;;;;;;;20.10;14.60;;;16.20;99.90;;;;;;5036660;28;20167;-64
2023/06/23 05:12:38;;;;;;;21.50;15.80;;;16.20;99.90;;;;;;5036812;28;20055;-64
2023/06/23 05:15:07;;;;;;;20.08;16.27;;;16.30;99.90;;;;;;5053375;28;20090;-64
2023/06/23 05:17:37;;;;;;;18.08;14.50;;;16.30;99.90;;;;;;5036008;28;20120;-64
2023/06/23 05:20:05;;;;;;;17.98;14.25;;;16.40;99.90;;;;;;5035992;28;20041;-64
2023/06/23 05:22:32;;;;;;;20.13;15.80;;;16.40;99.90;;;;;;5053192;28;20444;-64
2023/06/23 05:25:03;;;;;;;17.15;13.93;;;16.60;99.90;;;;;;5052341;28;20037;-64
2023/06/23 05:27:31;;;;;;;21.75;14.73;;;16.60;99.90;;;;;;5053903;28;20114;-64
2023/06/23 05:29:58;;;;;;;16.95;13.05;;;16.70;99.90;;;;;;5035089;28;20065;-64
2023/06/23 05:32:28;;;;;;;14.82;10.82;;;16.90;99.90;;;;;;5053504;28;20050;-64
2023/06/23 05:34:59;;;;;;;17.92;12.77;;;17.10;99.90;;;;;;5035871;28;20136;-64
2023/06/23 05:37:27;;;;;;;15.13;11.70;;;17.30;99.90;;;;;;5034902;28;20136;-64
2023/06/23 05:39:54;;;;;;;12.73;10.43;;;17.40;99.90;;;;;;5054058;28;20116;-64
2023/06/23 05:42:20;;;;;;;16.70;10.85;;;17.60;99.90;;;;;;5053451;28;20037;-64
2023/06/23 05:44:46;;;;;;;14.88;10.60;;;17.80;99.90;;;;;;5047096;28;20066;-64
2023/06/23 05:47:18;;;;;;;13.13;9.27;;;18.00;99.90;;;;;;5053811;28;20494;-64
2023/06/23 05:49:45;;;;;;;10.95;7.97;;;18.10;99.90;;;;;;5037836;28;20544;-65
2023/06/23 05:52:16;;;;;;;13.40;8.50;;;18.30;99.90;;;;;;5035224;28;20045;-64
2023/06/23 05:54:46;;;;;;;12.23;9.43;;;18.50;99.90;;;;;;5032962;28;20036;-64
2023/06/23 05:57:39;;;;;;;11.82;8.32;;;18.70;99.90;;;;;;5053307;28;20491;-64
2023/06/23 06:00:13;;;;;;;9.98;7.55;;;18.80;99.90;;;;;;5050368;28;20391;-64
2023/06/23 06:02:42;;;;;;;11.98;8.73;;;18.90;99.90;;;;;;5053457;28;20102;-64
2023/06/23 06:05:11;;;;;;;12.40;8.50;;;19.00;99.90;;;;;;5066766;28;20070;-64
2023/06/23 06:07:37;;;;;;;13.90;9.00;;;19.10;99.90;;;;;;5072927;28;20482;-64
2023/06/23 06:10:06;;;;;;;12.32;9.07;;;19.20;99.90;;;;;;5072953;28;20036;-65
2023/06/23 06:12:34;;;;;;;13.73;9.20;;;19.30;99.90;;;;;;5063774;28;20111;-64
2023/06/23 06:15:02;;;;;;;13.43;9.82;;;19.40;99.90;;;;;;5053208;28;20079;-65
2023/06/23 06:17:30;;;;;;;12.50;9.45;;;19.50;99.90;;;;;;5052363;28;20056;-64
2023/06/23 06:19:59;;;;;;;10.35;8.68;;;19.50;99.90;;;;;;5052162;28;20048;-65
2023/06/23 06:22:26;;;;;;;10.38;7.57;;;19.60;99.90;;;;;;5052641;28;20033;-64
2023/06/23 06:24:53;;;;;;;11.57;8.15;;;19.60;99.90;;;;;;5032838;28;20126;-64
2023/06/23 06:27:21;;;;;;;11.80;9.15;;;19.60;99.90;;;;;;5054250;28;20378;-64
2023/06/23 06:29:49;;;;;;;12.73;8.02;;;19.70;99.90;;;;;;5055768;28;20190;-64
2023/06/23 06:32:17;;;;;;;9.88;6.90;;;19.80;99.90;;;;;;5053630;28;20131;-64
2023/06/23 06:34:44;;;;;;;9.77;6.78;;;19.80;99.90;;;;;;5062723;28;20507;-64
2023/06/23 06:37:10;;;;;;;10.20;5.93;;;19.90;99.90;;;;;;5043450;28;20053;-64
2023/06/23 06:39:37;;;;;;;8.90;6.93;;;20.00;99.90;;;;;;5035104;28;20044;-64
2023/06/23 06:42:04;;;;;;;11.25;7.95;;;20.10;99.90;;;;;;5051249;28;20040;-64
2023/06/23 06:44:29;;;;;;;15.73;8.27;;;20.20;99.90;;;;;;5051886;28;20091;-65
2023/06/23 06:46:56;;;;;;;9.48;6.65;;;20.20;99.90;;;;;;5051315;28;20446;-65
2023/06/23 06:49:25;;;;;;;8.38;6.47;;;20.20;99.90;;;;;;5069529;28;20058;-65
2023/06/23 06:51:52;;;;;;;9.02;6.45;;;20.20;99.90;;;;;;5047962;28;20095;-65
2023/06/23 06:54:18;;;;;;;11.30;7.38;;;20.30;99.90;;;;;;5047569;28;20041;-65
2023/06/23 06:56:44;;;;;;;9.82;8.05;;;20.20;99.90;;;;;;5015457;28;20123;-64
2023/06/23 06:59:10;;;;;;;9.73;7.00;;;20.30;99.90;;;;;;5032181;28;20059;-65
2023/06/23 07:01:38;;;;;;;9.80;7.10;;;20.30;99.90;;;;;;5031082;28;20059;-64
2023/06/23 07:04:05;;;;;;;14.15;8.77;;;20.40;99.90;;;;;;5067490;28;20043;-64
2023/06/23 07:06:31;;;;;;;12.18;8.85;;;20.40;99.90;;;;;;5031208;28;20072;-63
2023/06/23 07:08:56;;;;;;;11.13;8.60;;;20.40;99.90;;;;;;5070113;28;20067;-64
2023/06/23 07:11:22;;;;;;;11.35;7.85;;;20.40;99.90;;;;;;5051070;28;20032;-63
2023/06/23 07:13:48;;;;;;;10.38;7.80;;;20.40;99.90;;;;;;5083899;28;20068;-63
2023/06/23 07:16:13;;;;;;;10.40;6.93;;;20.40;99.90;;;;;;5070290;28;20067;-63
2023/06/23 07:18:39;;;;;;;11.90;7.47;;;20.50;99.90;;;;;;5071219;28;20040;-63
2023/06/23 07:21:05;;;;;;;11.25;7.50;;;20.60;99.90;;;;;;5054936;28;20032;-63
2023/06/23 07:23:31;;;;;;;12.52;8.73;;;20.60;99.90;;;;;;5067219;28;20043;-63
2023/06/23 07:25:57;;;;;;;11.00;7.60;;;20.70;99.90;;;;;;5046420;28;20045;-64
2023/06/23 07:28:23;;;;;;;11.73;7.82;;;20.70;99.90;;;;;;5029503;28;20060;-63
2023/06/23 07:30:49;;;;;;;10.93;8.05;;;20.70;99.90;;;;;;5071278;28;20079;-63
2023/06/23 07:33:15;;;;;;;11.10;7.43;;;20.80;99.90;;;;;;5054701;28;20044;-63
2023/06/23 07:35:41;;;;;;;9.32;6.55;;;20.90;99.90;;;;;;5051666;28;20046;-63
2023/06/23 07:38:06;;;;;;;9.95;7.80;;;20.90;99.90;;;;;;5056840;28;20037;-63
2023/06/23 07:40:33;;;;;;;11.32;7.18;;;20.90;99.90;;;;;;5041733;28;20917;-63
2023/06/23 07:42:59;;;;;;;12.52;8.57;;;21.00;99.90;;;;;;5040790;28;20041;-63
2023/06/23 07:45:24;;;;;;;10.35;7.70;;;21.00;99.90;;;;;;5048081;28;20040;-63
2023/06/23 07:47:50;;;;;;;9.70;6.53;;;21.00;99.90;;;;;;5059745;28;20428;-63
2023/06/23 07:50:17;;;;;;;11.15;6.93;;;21.10;99.90;;;;;;5046691;28;20437;-64
2023/06/23 07:52:45;;;;;;;10.27;6.93;;;21.10;99.90;;;;;;5035581;28;20041;-64
2023/06/23 07:55:18;;;;;;;7.20;5.50;;;21.20;99.90;;;;;;5070821;28;20041;-63
2023/06/23 07:57:44;;;;;;;8.00;5.83;;;21.20;99.90;;;;;;5053799;28;20040;-63
2023/06/23 08:00:13;;;;;;;8.55;6.30;;;21.20;99.90;;;;;;5072379;28;20492;-64
2023/06/23 08:02:39;;;;;;;9.80;6.45;;;21.20;99.90;;;;;;5073423;28;20094;-63
2023/06/23 08:05:05;;;;;;;9.93;6.15;;;21.20;99.90;;;;;;5054017;28;20044;-63
2023/06/23 08:07:31;;;;;;;6.88;4.93;;;21.30;99.90;;;;;;5038772;28;20053;-63
2023/06/23 08:09:56;;;;;;;7.63;5.45;;;21.40;99.90;;;;;;5034765;28;20048;-63
2023/06/23 08:12:22;;;;;;;8.02;5.32;;;21.50;99.90;;;;;;5034479;28;20044;-64
2023/06/23 08:14:47;;;;;;;11.38;6.35;;;21.70;99.90;;;;;;5035150;28;20033;-64
2023/06/23 08:17:13;;;;;;;7.93;5.72;;;21.70;99.90;;;;;;5034978;28;20125;-64
2023/06/23 08:19:39;;;;;;;11.30;5.63;;;21.70;99.90;;;;;;5052513;28;20448;-63
2023/06/23 08:22:05;;;;;;;10.13;4.93;;;21.90;99.90;;;;;;5035378;28;20667;-64
2023/06/23 08:24:30;;;;;;;7.18;4.95;;;21.80;99.90;;;;;;5067900;28;20056;-63
2023/06/23 08:26:56;;;;;;;8.10;4.40;;;21.90;99.90;;;;;;5056386;28;20029;-64
2023/06/23 08:29:22;;;;;;;8.52;4.63;;;21.80;99.90;;;;;;5071281;28;20520;-63
2023/06/23 08:31:47;;;;;;;6.93;4.43;;;21.60;99.90;;;;;;5050469;28;20076;-63
2023/06/23 08:34:13;;;;;;;7.78;4.88;;;21.40;99.90;;;;;;5052576;28;20033;-63
2023/06/23 08:36:39;;;;;;;7.50;5.13;;;21.20;99.90;;;;;;5034408;28;20124;-63
2023/06/23 08:39:05;;;;;;;7.35;4.80;;;21.20;99.90;;;;;;5034362;28;20076;-64
2023/06/23 08:41:34;;;;;;;9.32;5.82;;;21.30;99.90;;;;;;5034636;28;20045;-64
2023/06/23 08:44:01;;;;;;;7.65;5.35;;;21.30;99.90;;;;;;5034715;28;20645;-63
2023/06/23 08:46:31;;;;;;;8.68;5.47;;;21.40;99.90;;;;;;5040961;28;20123;-64
2023/06/23 08:49:02;;;;;;;8.13;5.72;;;21.50;99.90;;;;;;5037014;28;20512;-63
2023/06/23 08:51:28;;;;;;;8.15;5.32;;;21.60;99.90;;;;;;5036420;28;20049;-63
2023/06/23 08:53:55;;;;;;;8.25;5.32;;;21.80;99.90;;;;;;5027528;28;20067;-62
2023/06/23 08:56:20;;;;;;;8.05;5.55;;;21.80;99.90;;;;;;5054502;28;20405;-62
2023/06/23 08:58:47;;;;;;;7.70;4.72;;;21.80;99.90;;;;;;5054716;28;20152;-62
2023/06/23 09:01:12;;;;;;;7.97;5.20;;;21.80;99.90;;;;;;5035867;28;20497;-62
2023/06/23 09:03:38;;;;;;;7.45;4.75;;;22.00;99.90;;;;;;5061670;28;20037;-64
2023/06/23 09:06:04;;;;;;;7.50;4.90;;;22.00;99.90;;;;;;5054419;28;20040;-64
2023/06/23 09:08:30;;;;;;;8.65;4.80;;;22.10;99.90;;;;;;5035091;28;20044;-63
2023/06/23 09:10:56;;;;;;;8.30;4.60;;;22.10;99.90;;;;;;5020003;28;20045;-63
2023/06/23 09:13:27;;;;;;;7.88;5.18;;;22.00;99.90;;;;;;5036355;28;20043;-63
2023/06/23 09:15:54;;;;;;;8.90;5.50;;;22.10;99.90;;;;;;5053174;28;20402;-62
2023/06/23 09:18:21;;;;;;;8.45;4.78;;;22.10;99.90;;;;;;5054035;28;20059;-63
2023/06/23 09:20:49;;;;;;;9.10;4.80;;;22.10;99.90;;;;;;5069245;28;20044;-64
2023/06/23 09:23:21;;;;;;;10.60;5.30;;;22.00;99.90;;;;;;5062437;28;20094;-63
2023/06/23 09:25:48;;;;;;;8.15;4.97;;;22.00;99.90;;;;;;5073713;28;20107;-63
2023/06/23 09:28:31;;;;;;;9.20;5.53;;;22.00;99.90;;;;;;5036961;28;20052;-63
2023/06/23 09:30:59;;;;;;;9.02;5.65;;;22.00;99.90;;;;;;5055888;28;20478;-63
2023/06/23 09:33:26;;;;;;;10.75;5.47;;;22.10;99.90;;;;;;5055977;28;20127;-63
2023/06/23 09:35:55;;;;;;;9.85;5.65;;;22.10;99.90;;;;;;5040299;28;20044;-63
2023/06/23 09:38:26;;;;;;;7.60;5.15;;;22.10;99.90;;;;;;5072150;28;20386;-63
2023/06/23 09:41:07;;;;;;;11.20;5.78;;;22.30;99.90;;;;;;5067723;28;20478;-63
2023/06/23 09:43:43;;;;;;;6.63;4.50;;;22.40;99.90;;;;;;5018283;28;20045;-63
2023/06/23 09:46:11;;;;;;;8.30;5.68;;;22.60;99.90;;;;;;5036032;28;20051;-63
2023/06/23 09:48:38;;;;;;;8.45;5.32;;;22.70;99.90;;;;;;5053423;28;20051;-63
2023/06/23 09:51:05;;;;;;;8.60;5.13;;;22.70;99.90;;;;;;5051972;28;20048;-63
2023/06/23 09:53:35;;;;;;;10.13;4.65;;;22.70;99.90;;;;;;5053431;28;20052;-63
2023/06/23 09:56:03;;;;;;;7.20;4.60;;;22.80;99.90;;;;;;5053196;28;20047;-63
2023/06/23 09:58:36;;;;;;;10.27;4.63;;;22.80;99.90;;;;;;5035479;28;20049;-63
2023/06/23 10:01:10;;;;;;;8.98;4.70;;;22.90;99.90;;;;;;5053558;28;20392;-63
2023/06/23 10:04:02;;;;;;;7.65;4.65;;;22.90;99.90;;;;;;5052632;28;20139;-63
2023/06/23 10:06:32;;;;;;;6.65;4.68;;;22.90;99.90;;;;;;5015746;28;20049;-64
2023/06/23 10:09:05;;;;;;;6.72;4.40;;;22.80;99.90;;;;;;5035330;28;20429;-63
2023/06/23 10:11:39;;;;;;;7.38;4.95;;;22.80;99.90;;;;;;5018050;28;20486;-63
2023/06/23 10:14:07;;;;;;;9.43;4.53;;;22.70;99.90;;;;;;5035522;28;20128;-65
2023/06/23 10:16:36;;;;;;;7.38;4.57;;;22.70;99.90;;;;;;5036437;28;20147;-64
2023/06/23 10:19:03;;;;;;;9.05;4.57;;;22.80;99.90;;;;;;5067905;28;20045;-64
2023/06/23 10:21:31;;;;;;;7.40;5.15;;;22.80;99.90;;;;;;5052802;28;20481;-64
2023/06/23 10:24:01;;;;;;;9.02;4.97;;;22.80;99.90;;;;;;5034877;28;20037;-64
2023/06/23 10:26:31;;;;;;;7.55;4.72;;;22.80;99.90;;;;;;5054186;28;20041;-63
2023/06/23 10:28:59;;;;;;;7.50;4.13;;;22.90;99.90;;;;;;5059565;28;20053;-65
2023/06/23 10:31:29;;;;;;;10.73;4.72;;;22.90;99.90;;;;;;5056645;28;20119;-64
2023/06/23 10:33:59;;;;;;;9.32;5.57;;;22.70;99.90;;;;;;5058463;28;20052;-65
2023/06/23 10:36:27;;;;;;;8.88;4.95;;;22.60;99.90;;;;;;5035625;28;20037;-64
2023/06/23 10:38:55;;;;;;;8.45;4.32;;;22.50;99.90;;;;;;5053874;28;20078;-64
2023/06/23 10:41:24;;;;;;;6.95;4.65;;;22.50;99.90;;;;;;5039429;28;20036;-66
2023/06/23 10:43:51;;;;;;;12.45;4.97;;;22.40;99.90;;;;;;5059199;28;20068;-65
2023/06/23 10:46:18;;;;;;;7.75;5.15;;;22.50;99.90;;;;;;5051069;28;20041;-65
2023/06/23 10:48:44;;;;;;;8.02;5.70;;;22.50;99.90;;;;;;5052941;28;20040;-65
2023/06/23 10:51:10;;;;;;;7.15;4.63;;;22.30;99.90;;;;;;5072465;28;20049;-66
2023/06/23 10:54:05;;;;;;;7.05;4.80;;;22.30;99.90;;;;;;5053757;28;20044;-66
2023/06/23 10:56:39;;;;;;;8.23;4.68;;;22.30;99.90;;;;;;5052369;28;20041;-65
2023/06/23 10:59:19;;;;;;;7.53;4.15;;;22.40;99.90;;;;;;5018653;28;20051;-65
2023/06/23 11:02:00;;;;;;;6.20;4.05;;;22.40;99.90;;;;;;5051401;28;20052;-65
2023/06/23 11:04:26;;;;;;;7.65;4.38;;;22.40;99.90;;;;;;5051240;28;20052;-65
2023/06/23 11:07:03;;;;;;;7.20;4.22;;;22.40;99.90;;;;;;5052203;28;20072;-66
2023/06/23 11:09:47;;;;;;;6.70;4.18;;;22.50;99.90;;;;;;5069043;28;20489;-65
2023/06/23 11:12:28;;;;;;;7.47;3.60;;;22.50;99.90;;;;;;5047228;28;20428;-65
2023/06/23 11:15:01;;;;;;;10.90;4.90;;;22.60;99.90;;;;;;5067225;28;20048;-65
2023/06/23 11:17:26;;;;;;;8.52;4.38;;;22.60;99.90;;;;;;5051111;28;20040;-65
2023/06/23 11:19:53;;;;;;;8.57;4.07;;;22.70;99.90;;;;;;5049560;28;20051;-66
2023/06/23 11:22:23;;;;;;;9.60;4.43;;;22.70;99.90;;;;;;5041298;28;20128;-65
2023/06/23 11:24:55;;;;;;;5.38;3.55;;;22.70;99.90;;;;;;5040800;28;20087;-65
2023/06/23 11:27:20;;;;;;;7.95;3.72;;;22.70;98.90;;;;;;5032563;28;20049;-65
2023/06/23 11:30:19;;;;;;;7.80;3.72;;;22.70;98.80;;;;;;5039648;28;20052;-65
2023/06/23 11:32:44;;;;;;;7.53;3.65;;;22.80;98.30;;;;;;4996842;28;20064;-65
2023/06/23 11:35:11;;;;;;;5.90;3.35;;;22.80;96.80;;;;;;5049788;28;20040;-65
2023/06/23 11:37:38;;;;;;;6.13;3.28;;;22.90;96.50;;;;;;5038649;28;20057;-65
2023/06/23 11:40:05;;;;;;;5.75;3.30;;;23.00;96.10;;;;;;5032684;28;20050;-64
2023/06/23 11:42:31;;;;;;;9.40;3.67;;;23.00;94.70;;;;;;5048905;28;20654;-64
2023/06/23 11:44:57;;;;;;;6.30;3.53;;;23.00;93.20;;;;;;5049423;28;20120;-64
2023/06/23 11:47:27;;;;;;;5.47;2.90;;;23.10;93.70;;;;;;5031681;28;20041;-64
2023/06/23 11:49:54;;;;;;;5.88;3.22;;;23.20;92.50;;;;;;5048812;28;20051;-64
2023/06/23 11:52:20;;;;;;;6.25;3.17;;;23.20;90.60;;;;;;5049880;28;20071;-64
2023/06/23 11:54:48;;;;;;;5.63;3.30;;;23.20;91.90;;;;;;5035244;28;20086;-64
2023/06/23 11:57:20;;;;;;;6.18;3.30;;;23.20;91.70;;;;;;5045397;28;20072;-64
2023/06/23 11:59:46;;;;;;;5.13;2.58;;;23.20;90.60;;;;;;5048809;28;20033;-64
2023/06/23 12:02:13;;;;;;;6.72;2.75;;;23.20;90.80;;;;;;5031718;28;20095;-64
2023/06/23 12:04:39;;;;;;;5.70;2.85;;;23.10;86.30;;;;;;5035283;28;20036;-64
2023/06/23 12:07:05;;;;;;;5.45;2.80;;;23.20;90.50;;;;;;5059024;28;20048;-64
2023/06/23 12:09:31;;;;;;;5.07;2.70;;;23.30;89.80;;;;;;5068457;28;20040;-64
2023/06/23 12:11:58;;;;;;;4.22;2.50;;;23.20;89.10;;;;;;5049192;28;20040;-64
2023/06/23 12:14:33;;;;;;;5.05;2.63;;;23.30;90.60;;;;;;5052368;28;20094;-64
2023/06/23 12:17:10;;;;;;;5.38;3.10;;;23.40;89.90;;;;;;5071451;28;20039;-64
2023/06/23 12:19:37;;;;;;;5.25;2.58;;;23.30;90.50;;;;;;5048771;28;20366;-64
2023/06/23 12:22:04;;;;;;;7.18;2.92;;;23.40;90.60;;;;;;5052241;28;20032;-64
2023/06/23 12:24:33;;;;;;;5.65;2.60;;;23.30;90.20;;;;;;5044312;28;20036;-64
2023/06/23 12:26:59;;;;;;;5.63;2.25;;;23.30;91.00;;;;;;5036110;28;20040;-65
2023/06/23 12:29:25;;;;;;;4.43;2.42;;;23.30;90.10;;;;;;5071000;28;20052;-64
2023/06/23 12:31:58;;;;;;;8.38;2.83;;;23.20;90.30;;;;;;5050213;28;20044;-64
2023/06/23 12:34:35;;;;;;;6.63;2.70;;;23.20;90.50;;;;;;5069554;28;20074;-64
2023/06/23 12:37:12;;;;;;;4.97;2.40;;;23.30;90.50;;;;;;5053166;28;20051;-64
2023/06/23 12:39:38;;;;;;;7.55;2.70;;;23.30;90.20;;;;;;5053133;28;20393;-64
2023/06/23 12:42:06;;;;;;;6.22;2.63;;;23.40;91.20;;;;;;5053582;28;20049;-64
2023/06/23 12:44:32;;;;;;;4.72;2.58;;;23.40;90.20;;;;;;5063501;28;20457;-64
2023/06/23 12:47:01;;;;;;;5.82;2.55;;;23.30;90.30;;;;;;5051483;28;20076;-64
2023/06/23 12:49:32;;;;;;;7.03;3.10;;;23.20;87.90;;;;;;5067575;28;20036;-64